sensor_id;sensor_type;location;lat;lon;timestamp;pressure;altitude;pressure_sealevel;temperature;humidity
37298;BME280;30517;51.932;4.278;2023-01-25T00:00:42;103862.91;;;4.97;67.99
37298;BME280;30517;51.932;4.278;2023-01-25T00:03:23;103862.13;;;4.98;68.40
37298;BME280;30517;51.932;4.278;2023-01-25T00:06:04;103856.75;;;4.96;67.96
37298;BME280;30517;51.932;4.278;2023-01-25T00:08:48;103855.88;;;4.96;68.32
37298;BME280;30517;51.932;4.278;2023-01-25T00:11:29;103853.38;;;4.97;67.92
37298;BME280;30517;51.932;4.278;2023-01-25T00:14:11;103843.81;;;4.98;68.11
37298;BME280;30517;51.932;4.278;2023-01-25T00:16:52;103829.28;;;4.90;68.33
37298;BME280;30517;51.932;4.278;2023-01-25T00:19:33;103814.66;;;4.80;68.15
37298;BME280;30517;51.932;4.278;2023-01-25T00:22:13;103792.78;;;4.66;68.52
37298;BME280;30517;51.932;4.278;2023-01-25T00:24:54;103820.44;;;4.87;68.14
37298;BME280;30517;51.932;4.278;2023-01-25T00:27:35;103836.66;;;4.95;68.65
37298;BME280;30517;51.932;4.278;2023-01-25T00:30:16;103830.59;;;4.96;68.13
37298;BME280;30517;51.932;4.278;2023-01-25T00:33:01;103826.06;;;4.94;68.01
37298;BME280;30517;51.932;4.278;2023-01-25T00:35:47;103823.44;;;4.94;68.40
37298;BME280;30517;51.932;4.278;2023-01-25T00:38:33;103820.84;;;4.94;68.43
37298;BME280;30517;51.932;4.278;2023-01-25T00:41:14;103818.34;;;4.95;67.74
37298;BME280;30517;51.932;4.278;2023-01-25T00:43:55;103803.63;;;4.84;68.27
37298;BME280;30517;51.932;4.278;2023-01-25T00:46:36;103810.50;;;4.95;67.91
37298;BME280;30517;51.932;4.278;2023-01-25T00:49:22;103801.09;;;4.85;68.29
37298;BME280;30517;51.932;4.278;2023-01-25T00:52:04;103795.47;;;4.79;68.28
37298;BME280;30517;51.932;4.278;2023-01-25T00:54:44;103804.72;;;4.87;68.19
37298;BME280;30517;51.932;4.278;2023-01-25T00:57:25;103786.78;;;4.80;68.53
37298;BME280;30517;51.932;4.278;2023-01-25T01:00:07;103790.22;;;4.79;68.28
37298;BME280;30517;51.932;4.278;2023-01-25T01:02:48;103807.56;;;4.91;68.30
37298;BME280;30517;51.932;4.278;2023-01-25T01:05:28;103809.38;;;4.92;67.95
37298;BME280;30517;51.932;4.278;2023-01-25T01:08:10;103811.19;;;4.93;68.67
37298;BME280;30517;51.932;4.278;2023-01-25T01:10:57;103808.94;;;4.85;68.14
37298;BME280;30517;51.932;4.278;2023-01-25T01:13:39;103809.06;;;4.87;68.53
37298;BME280;30517;51.932;4.278;2023-01-25T01:16:20;103807.47;;;4.89;68.24
37298;BME280;30517;51.932;4.278;2023-01-25T01:19:01;103792.97;;;4.81;67.90
37298;BME280;30517;51.932;4.278;2023-01-25T01:21:42;103813.81;;;4.93;67.95
37298;BME280;30517;51.932;4.278;2023-01-25T01:24:23;103810.16;;;4.91;68.31
37298;BME280;30517;51.932;4.278;2023-01-25T01:27:03;103776.75;;;4.73;68.13
37298;BME280;30517;51.932;4.278;2023-01-25T01:29:44;103783.19;;;4.78;68.13
37298;BME280;30517;51.932;4.278;2023-01-25T01:32:25;103788.84;;;4.84;68.02
37298;BME280;30517;51.932;4.278;2023-01-25T01:35:06;103798.19;;;4.81;68.20
37298;BME280;30517;51.932;4.278;2023-01-25T01:37:47;103806.31;;;4.85;68.30
37298;BME280;30517;51.932;4.278;2023-01-25T01:40:28;103798.59;;;4.87;68.48
37298;BME280;30517;51.932;4.278;2023-01-25T01:43:16;103807.22;;;4.86;68.23
37298;BME280;30517;51.932;4.278;2023-01-25T01:45:59;103799.50;;;4.87;68.35
37298;BME280;30517;51.932;4.278;2023-01-25T01:48:42;103803.84;;;4.87;68.07
37298;BME280;30517;51.932;4.278;2023-01-25T01:54:28;103806.13;;;4.82;68.39
37298;BME280;30517;51.932;4.278;2023-01-25T01:57:28;103796.63;;;4.71;68.47
37298;BME280;30517;51.932;4.278;2023-01-25T02:00:26;103799.09;;;4.81;68.51
37298;BME280;30517;51.932;4.278;2023-01-25T02:03:10;103791.81;;;4.77;68.14
37298;BME280;30517;51.932;4.278;2023-01-25T02:06:00;103808.53;;;4.79;68.30
37298;BME280;30517;51.932;4.278;2023-01-25T02:08:43;103707.19;;;4.25;68.13
37298;BME280;30517;51.932;4.278;2023-01-25T02:11:25;103771.06;;;4.67;68.47
37298;BME280;30517;51.932;4.278;2023-01-25T02:14:07;103791.81;;;4.77;68.42
37298;BME280;30517;51.932;4.278;2023-01-25T02:16:48;103805.00;;;4.79;68.58
37298;BME280;30517;51.932;4.278;2023-01-25T02:22:21;103790.34;;;4.81;68.48
37298;BME280;30517;51.932;4.278;2023-01-25T02:30:51;103782.59;;;4.82;67.94
37298;BME280;30517;51.932;4.278;2023-01-25T02:33:32;103748.94;;;4.62;68.22
37298;BME280;30517;51.932;4.278;2023-01-25T02:36:23;103775.34;;;4.78;67.80
37298;BME280;30517;51.932;4.278;2023-01-25T02:39:12;103771.91;;;4.79;68.36
37298;BME280;30517;51.932;4.278;2023-01-25T02:41:55;103757.63;;;4.74;68.14
37298;BME280;30517;51.932;4.278;2023-01-25T02:44:36;103770.31;;;4.81;68.58
37298;BME280;30517;51.932;4.278;2023-01-25T02:47:17;103763.38;;;4.82;67.93
37298;BME280;30517;51.932;4.278;2023-01-25T02:49:58;103752.50;;;4.76;67.55
37298;BME280;30517;51.932;4.278;2023-01-25T02:52:39;103770.41;;;4.83;68.10
37298;BME280;30517;51.932;4.278;2023-01-25T02:55:20;103757.25;;;4.81;68.01
37298;BME280;30517;51.932;4.278;2023-01-25T02:58:00;103738.09;;;4.69;68.37
37298;BME280;30517;51.932;4.278;2023-01-25T03:00:41;103726.72;;;4.69;68.24
37298;BME280;30517;51.932;4.278;2023-01-25T03:03:22;103736.91;;;4.77;68.44
37298;BME280;30517;51.932;4.278;2023-01-25T03:06:04;103742.94;;;4.76;67.91
37298;BME280;30517;51.932;4.278;2023-01-25T03:08:44;103749.97;;;4.77;68.50
37298;BME280;30517;51.932;4.278;2023-01-25T03:11:25;103736.69;;;4.74;68.14
37298;BME280;30517;51.932;4.278;2023-01-25T03:14:06;103737.72;;;4.76;68.10
37298;BME280;30517;51.932;4.278;2023-01-25T03:16:47;103710.44;;;4.59;68.26
37298;BME280;30517;51.932;4.278;2023-01-25T03:19:28;103728.97;;;4.76;68.08
37298;BME280;30517;51.932;4.278;2023-01-25T03:22:08;103726.84;;;4.70;67.99
37298;BME280;30517;51.932;4.278;2023-01-25T03:24:50;103725.22;;;4.72;67.98
37298;BME280;30517;51.932;4.278;2023-01-25T03:27:30;103732.16;;;4.72;68.33
37298;BME280;30517;51.932;4.278;2023-01-25T03:30:11;103652.53;;;4.28;68.27
37298;BME280;30517;51.932;4.278;2023-01-25T03:32:52;103712.56;;;4.65;68.03
37298;BME280;30517;51.932;4.278;2023-01-25T03:35:33;103710.94;;;4.67;67.99
37298;BME280;30517;51.932;4.278;2023-01-25T03:38:13;103710.03;;;4.66;68.31
37298;BME280;30517;51.932;4.278;2023-01-25T03:40:54;103706.50;;;4.66;68.28
37298;BME280;30517;51.932;4.278;2023-01-25T03:43:35;103705.69;;;4.67;67.94
37298;BME280;30517;51.932;4.278;2023-01-25T03:46:16;103713.84;;;4.72;68.10
37298;BME280;30517;51.932;4.278;2023-01-25T03:48:56;103703.06;;;4.67;68.32
37298;BME280;30517;51.932;4.278;2023-01-25T03:51:37;103708.44;;;4.69;68.21
37298;BME280;30517;51.932;4.278;2023-01-25T03:54:18;103703.06;;;4.67;68.16
37298;BME280;30517;51.932;4.278;2023-01-25T03:56:59;103710.34;;;4.71;68.47
37298;BME280;30517;51.932;4.278;2023-01-25T03:59:40;103707.03;;;4.74;68.08
37298;BME280;30517;51.932;4.278;2023-01-25T04:02:21;103711.38;;;4.73;68.29
37298;BME280;30517;51.932;4.278;2023-01-25T04:05:02;103690.75;;;4.64;68.28
37298;BME280;30517;51.932;4.278;2023-01-25T04:07:44;103713.84;;;4.72;68.64
37298;BME280;30517;51.932;4.278;2023-01-25T04:10:24;103707.72;;;4.71;68.39
37298;BME280;30517;51.932;4.278;2023-01-25T04:13:05;103698.59;;;4.64;67.97
37298;BME280;30517;51.932;4.278;2023-01-25T04:15:46;103701.69;;;4.72;68.26
37298;BME280;30517;51.932;4.278;2023-01-25T04:18:27;103697.66;;;4.64;68.24
37298;BME280;30517;51.932;4.278;2023-01-25T04:21:08;103702.50;;;4.71;68.33
37298;BME280;30517;51.932;4.278;2023-01-25T04:23:49;103684.28;;;4.59;68.05
37298;BME280;30517;51.932;4.278;2023-01-25T04:26:29;103697.84;;;4.67;68.29
37298;BME280;30517;51.932;4.278;2023-01-25T04:29:10;103689.31;;;4.70;68.11
37298;BME280;30517;51.932;4.278;2023-01-25T04:31:52;103667.06;;;4.50;68.20
37298;BME280;30517;51.932;4.278;2023-01-25T04:34:32;103667.19;;;4.51;68.23
37298;BME280;30517;51.932;4.278;2023-01-25T04:37:13;103627.75;;;4.35;68.16
37298;BME280;30517;51.932;4.278;2023-01-25T04:39:54;103685.59;;;4.66;68.55
37298;BME280;30517;51.932;4.278;2023-01-25T04:42:35;103656.41;;;4.47;68.31
37298;BME280;30517;51.932;4.278;2023-01-25T04:45:15;103696.66;;;4.62;68.36
37298;BME280;30517;51.932;4.278;2023-01-25T04:47:59;103667.38;;;4.54;68.35
37298;BME280;30517;51.932;4.278;2023-01-25T04:50:44;103676.72;;;4.64;68.25
37298;BME280;30517;51.932;4.278;2023-01-25T04:53:25;103668.00;;;4.63;67.89
37298;BME280;30517;51.932;4.278;2023-01-25T04:56:06;103651.91;;;4.57;67.86
37298;BME280;30517;51.932;4.278;2023-01-25T04:58:47;103638.31;;;4.50;68.24
37298;BME280;30517;51.932;4.278;2023-01-25T05:01:27;103659.03;;;4.60;68.48
37298;BME280;30517;51.932;4.278;2023-01-25T05:04:08;103663.66;;;4.64;68.21
37298;BME280;30517;51.932;4.278;2023-01-25T05:06:49;103667.28;;;4.66;68.08
37298;BME280;30517;51.932;4.278;2023-01-25T05:09:30;103645.34;;;4.51;68.04
37298;BME280;30517;51.932;4.278;2023-01-25T05:12:11;103665.50;;;4.65;68.15
37298;BME280;30517;51.932;4.278;2023-01-25T05:14:52;103668.88;;;4.64;68.15
37298;BME280;30517;51.932;4.278;2023-01-25T05:17:33;103642.53;;;4.48;68.25
37298;BME280;30517;51.932;4.278;2023-01-25T05:20:14;103670.53;;;4.62;68.52
37298;BME280;30517;51.932;4.278;2023-01-25T05:22:55;103673.91;;;4.61;68.52
37298;BME280;30517;51.932;4.278;2023-01-25T05:25:36;103667.50;;;4.69;66.60
37298;BME280;30517;51.932;4.278;2023-01-25T05:28:35;103656.72;;;4.78;65.27
37298;BME280;30517;51.932;4.278;2023-01-25T05:31:16;103647.00;;;4.75;65.27
37298;BME280;30517;51.932;4.278;2023-01-25T05:33:57;103658.25;;;4.74;66.12
37298;BME280;30517;51.932;4.278;2023-01-25T05:36:39;103656.63;;;4.63;66.39
37298;BME280;30517;51.932;4.278;2023-01-25T05:39:19;103648.97;;;4.53;67.14
37298;BME280;30517;51.932;4.278;2023-01-25T05:42:00;103643.53;;;4.50;67.45
37298;BME280;30517;51.932;4.278;2023-01-25T05:44:41;103636.50;;;4.49;67.20
37298;BME280;30517;51.932;4.278;2023-01-25T05:47:22;103640.94;;;4.50;67.34
37298;BME280;30517;51.932;4.278;2023-01-25T05:50:03;103648.97;;;4.53;67.34
37298;BME280;30517;51.932;4.278;2023-01-25T05:52:45;103654.00;;;4.50;67.73
37298;BME280;30517;51.932;4.278;2023-01-25T05:55:26;103607.31;;;4.16;67.93
37298;BME280;30517;51.932;4.278;2023-01-25T05:58:06;103662.66;;;4.49;68.19
37298;BME280;30517;51.932;4.278;2023-01-25T06:00:47;103664.25;;;4.47;68.14
37298;BME280;30517;51.932;4.278;2023-01-25T06:03:28;103644.13;;;4.32;67.99
37298;BME280;30517;51.932;4.278;2023-01-25T06:06:09;103656.91;;;4.41;68.10
37298;BME280;30517;51.932;4.278;2023-01-25T06:08:50;103657.59;;;4.38;67.88
37298;BME280;30517;51.932;4.278;2023-01-25T06:11:31;103664.94;;;4.44;68.19
37298;BME280;30517;51.932;4.278;2023-01-25T06:14:12;103669.69;;;4.50;68.06
37298;BME280;30517;51.932;4.278;2023-01-25T06:16:52;103679.22;;;4.49;68.27
37298;BME280;30517;51.932;4.278;2023-01-25T06:19:33;103670.50;;;4.49;68.02
37298;BME280;30517;51.932;4.278;2023-01-25T06:22:14;103666.03;;;4.48;68.17
37298;BME280;30517;51.932;4.278;2023-01-25T06:24:55;103655.19;;;4.41;68.04
37298;BME280;30517;51.932;4.278;2023-01-25T06:27:35;103637.25;;;4.34;67.79
37298;BME280;30517;51.932;4.278;2023-01-25T06:30:16;103654.69;;;4.47;67.99
37298;BME280;30517;51.932;4.278;2023-01-25T06:32:57;103651.25;;;4.48;67.71
37298;BME280;30517;51.932;4.278;2023-01-25T06:35:38;103638.19;;;4.35;67.65
37298;BME280;30517;51.932;4.278;2023-01-25T06:38:22;103644.94;;;4.44;67.94
37298;BME280;30517;51.932;4.278;2023-01-25T06:41:04;103647.34;;;4.41;67.79
37298;BME280;30517;51.932;4.278;2023-01-25T06:43:47;103652.78;;;4.44;68.09
37298;BME280;30517;51.932;4.278;2023-01-25T06:46:30;103650.16;;;4.44;68.46
37298;BME280;30517;51.932;4.278;2023-01-25T06:49:11;103644.94;;;4.44;67.75
37298;BME280;30517;51.932;4.278;2023-01-25T06:51:53;103658.63;;;4.40;67.84
37298;BME280;30517;51.932;4.278;2023-01-25T06:54:34;103644.72;;;4.41;68.14
37298;BME280;30517;51.932;4.278;2023-01-25T06:57:14;103636.03;;;4.29;67.89
37298;BME280;30517;51.932;4.278;2023-01-25T06:59:55;103643.91;;;4.42;68.42
37298;BME280;30517;51.932;4.278;2023-01-25T07:02:36;103638.09;;;4.33;68.33
37298;BME280;30517;51.932;4.278;2023-01-25T07:05:17;103646.53;;;4.42;68.47
37298;BME280;30517;51.932;4.278;2023-01-25T07:07:57;103649.97;;;4.41;67.75
37298;BME280;30517;51.932;4.278;2023-01-25T07:10:38;103642.94;;;4.40;67.73
37298;BME280;30517;51.932;4.278;2023-01-25T07:13:19;103655.19;;;4.41;68.02
37298;BME280;30517;51.932;4.278;2023-01-25T07:16:05;103644.72;;;4.41;67.94
37298;BME280;30517;51.932;4.278;2023-01-25T07:18:46;103635.66;;;4.36;68.26
37298;BME280;30517;51.932;4.278;2023-01-25T07:21:27;103642.00;;;4.40;68.06
37298;BME280;30517;51.932;4.278;2023-01-25T07:24:14;103643.84;;;4.41;68.29
37298;BME280;30517;51.932;4.278;2023-01-25T07:26:55;103650.78;;;4.40;68.28
37298;BME280;30517;51.932;4.278;2023-01-25T07:29:36;103645.50;;;4.27;68.22
37298;BME280;30517;51.932;4.278;2023-01-25T07:32:17;103627.09;;;4.26;67.70
37298;BME280;30517;51.932;4.278;2023-01-25T07:34:57;103634.78;;;4.36;67.54
37298;BME280;30517;51.932;4.278;2023-01-25T07:37:38;103635.25;;;4.30;67.74
37298;BME280;30517;51.932;4.278;2023-01-25T07:40:19;103634.03;;;4.25;68.05
37298;BME280;30517;51.932;4.278;2023-01-25T07:43:03;103631.25;;;4.35;68.27
37298;BME280;30517;51.932;4.278;2023-01-25T07:45:45;103623.81;;;4.41;67.85
37298;BME280;30517;51.932;4.278;2023-01-25T07:48:29;103623.00;;;4.42;67.74
37298;BME280;30517;51.932;4.278;2023-01-25T07:51:11;103616.09;;;4.43;67.59
37298;BME280;30517;51.932;4.278;2023-01-25T07:53:57;103603.50;;;4.37;68.01
37298;BME280;30517;51.932;4.278;2023-01-25T07:56:38;103611.78;;;4.43;67.91
37298;BME280;30517;51.932;4.278;2023-01-25T07:59:19;103614.47;;;4.45;67.97
37298;BME280;30517;51.932;4.278;2023-01-25T08:02:00;103611.97;;;4.47;67.48
37298;BME280;30517;51.932;4.278;2023-01-25T08:04:41;103611.16;;;4.48;67.95
37298;BME280;30517;51.932;4.278;2023-01-25T08:07:22;103612.16;;;4.50;67.73
37298;BME280;30517;51.932;4.278;2023-01-25T08:10:03;103602.34;;;4.46;67.63
37298;BME280;30517;51.932;4.278;2023-01-25T08:12:46;103602.91;;;4.41;68.06
37298;BME280;30517;51.932;4.278;2023-01-25T08:15:26;103616.69;;;4.39;67.93
37298;BME280;30517;51.932;4.278;2023-01-25T08:18:07;103622.03;;;4.40;68.05
37298;BME280;30517;51.932;4.278;2023-01-25T08:20:48;103615.16;;;4.42;67.67
37298;BME280;30517;51.932;4.278;2023-01-25T08:23:29;103612.56;;;4.42;67.94
37298;BME280;30517;51.932;4.278;2023-01-25T08:26:12;103606.53;;;4.43;67.48
37298;BME280;30517;51.932;4.278;2023-01-25T08:28:53;103601.91;;;4.39;67.56
37298;BME280;30517;51.932;4.278;2023-01-25T08:31:35;103598.25;;;4.37;68.06
37298;BME280;30517;51.932;4.278;2023-01-25T08:34:16;103609.16;;;4.43;67.74
37298;BME280;30517;51.932;4.278;2023-01-25T08:36:57;103573.13;;;4.26;67.69
37298;BME280;30517;51.932;4.278;2023-01-25T08:39:37;103614.47;;;4.45;67.78
37298;BME280;30517;51.932;4.278;2023-01-25T08:42:18;103617.19;;;4.47;67.89
37298;BME280;30517;51.932;4.278;2023-01-25T08:44:59;103589.84;;;4.41;67.75
37298;BME280;30517;51.932;4.278;2023-01-25T08:47:43;103604.94;;;4.46;67.46
37298;BME280;30517;51.932;4.278;2023-01-25T08:50:24;103611.84;;;4.45;67.91
37298;BME280;30517;51.932;4.278;2023-01-25T08:53:05;103615.16;;;4.42;67.55
37298;BME280;30517;51.932;4.278;2023-01-25T08:55:45;103607.44;;;4.44;67.68
37298;BME280;30517;51.932;4.278;2023-01-25T08:58:26;103585.19;;;4.37;67.72
37298;BME280;30517;51.932;4.278;2023-01-25T09:01:10;103603.22;;;4.46;67.46
37298;BME280;30517;51.932;4.278;2023-01-25T09:03:52;103584.03;;;4.32;67.56
37298;BME280;30517;51.932;4.278;2023-01-25T09:06:33;103598.69;;;4.43;67.64
37298;BME280;30517;51.932;4.278;2023-01-25T09:09:14;103598.00;;;4.46;67.84
37298;BME280;30517;51.932;4.278;2023-01-25T09:11:55;103597.00;;;4.44;67.86
37298;BME280;30517;51.932;4.278;2023-01-25T09:14:36;103581.09;;;4.41;67.54
37298;BME280;30517;51.932;4.278;2023-01-25T09:17:19;103573.56;;;4.32;67.84
37298;BME280;30517;51.932;4.278;2023-01-25T09:20:00;103588.25;;;4.43;67.50
37298;BME280;30517;51.932;4.278;2023-01-25T09:22:40;103588.25;;;4.43;67.79
37298;BME280;30517;51.932;4.278;2023-01-25T09:25:21;103572.13;;;4.37;67.84
37298;BME280;30517;51.932;4.278;2023-01-25T09:28:02;103577.88;;;4.45;67.87
37298;BME280;30517;51.932;4.278;2023-01-25T09:30:58;103572.44;;;4.42;67.36
37298;BME280;30517;51.932;4.278;2023-01-25T09:33:39;103570.97;;;4.46;67.60
37298;BME280;30517;51.932;4.278;2023-01-25T09:36:20;103571.88;;;4.46;67.85
37298;BME280;30517;51.932;4.278;2023-01-25T09:39:05;103562.00;;;4.42;67.56
37298;BME280;30517;51.932;4.278;2023-01-25T09:42:10;103563.81;;;4.43;67.59
37298;BME280;30517;51.932;4.278;2023-01-25T09:45:10;103562.69;;;4.39;67.96
37298;BME280;30517;51.932;4.278;2023-01-25T09:47:57;103537.56;;;4.28;67.59
37298;BME280;30517;51.932;4.278;2023-01-25T09:50:40;103564.72;;;4.43;67.45
37298;BME280;30517;51.932;4.278;2023-01-25T09:53:36;103554.28;;;4.43;67.84
37298;BME280;30517;51.932;4.278;2023-01-25T09:56:28;103549.03;;;4.43;67.44
37298;BME280;30517;51.932;4.278;2023-01-25T09:59:14;103537.47;;;4.40;67.71
37298;BME280;30517;51.932;4.278;2023-01-25T10:02:04;103518.69;;;4.32;67.82
37298;BME280;30517;51.932;4.278;2023-01-25T10:05:00;103519.59;;;4.33;67.68
37298;BME280;30517;51.932;4.278;2023-01-25T10:11:01;103502.09;;;4.32;67.45
37298;BME280;30517;51.932;4.278;2023-01-25T10:13:46;103515.84;;;4.42;67.36
37298;BME280;30517;51.932;4.278;2023-01-25T10:16:31;103508.44;;;4.35;67.40
37298;BME280;30517;51.932;4.278;2023-01-25T10:19:52;103513.03;;;4.39;67.84
37298;BME280;30517;51.932;4.278;2023-01-25T10:22:40;103503.41;;;4.38;67.78
37298;BME280;30517;51.932;4.278;2023-01-25T10:25:31;103496.06;;;4.33;67.83
37298;BME280;30517;51.932;4.278;2023-01-25T10:28:58;103497.88;;;4.34;67.73
37298;BME280;30517;51.932;4.278;2023-01-25T10:31:21;103504.50;;;4.42;67.37
37298;BME280;30517;51.932;4.278;2023-01-25T10:34:30;103488.13;;;4.44;68.02
37298;BME280;30517;51.932;4.278;2023-01-25T10:37:15;103483.09;;;4.48;67.55
37298;BME280;30517;51.932;4.278;2023-01-25T10:40:05;103488.31;;;4.48;67.21
37298;BME280;30517;51.932;4.278;2023-01-25T10:43:02;103476.97;;;4.47;67.43
37298;BME280;30517;51.932;4.278;2023-01-25T10:45:46;103484.59;;;4.44;67.40
37298;BME280;30517;51.932;4.278;2023-01-25T10:48:31;103461.09;;;4.31;67.84
37298;BME280;30517;51.932;4.278;2023-01-25T10:51:30;103472.34;;;4.43;67.26
37298;BME280;30517;51.932;4.278;2023-01-25T10:54:14;103467.31;;;4.46;67.38
37298;BME280;30517;51.932;4.278;2023-01-25T10:56:55;103427.81;;;4.28;67.65
37298;BME280;30517;51.932;4.278;2023-01-25T10:59:36;103453.94;;;4.41;67.71
37298;BME280;30517;51.932;4.278;2023-01-25T11:02:43;103447.81;;;4.41;67.65
37298;BME280;30517;51.932;4.278;2023-01-25T11:05:34;103437.25;;;4.39;67.78
37298;BME280;30517;51.932;4.278;2023-01-25T11:11:23;103427.94;;;4.43;67.42
37298;BME280;30517;51.932;4.278;2023-01-25T11:14:17;103433.75;;;4.39;67.54
37298;BME280;30517;51.932;4.278;2023-01-25T11:16:59;103424.81;;;4.35;67.19
37298;BME280;30517;51.932;4.278;2023-01-25T11:19:40;103426.22;;;4.30;67.76
37298;BME280;30517;51.932;4.278;2023-01-25T11:22:21;103388.44;;;4.12;67.88
37298;BME280;30517;51.932;4.278;2023-01-25T11:25:30;103410.72;;;4.33;68.25
37298;BME280;30517;51.932;4.278;2023-01-25T11:28:18;103398.06;;;4.39;67.96
37298;BME280;30517;51.932;4.278;2023-01-25T11:30:59;103392.75;;;4.38;67.85
37298;BME280;30517;51.932;4.278;2023-01-25T11:33:40;103379.56;;;4.36;67.64
37298;BME280;30517;51.932;4.278;2023-01-25T11:36:28;103381.38;;;4.37;67.59
37298;BME280;30517;51.932;4.278;2023-01-25T11:39:20;103364.97;;;4.40;67.67
37298;BME280;30517;51.932;4.278;2023-01-25T11:42:30;103360.47;;;4.37;67.65
37298;BME280;30517;51.932;4.278;2023-01-25T11:48:44;103353.63;;;4.39;67.96
37298;BME280;30517;51.932;4.278;2023-01-25T11:54:38;103288.63;;;4.03;68.32
37298;BME280;30517;51.932;4.278;2023-01-25T11:57:28;103339.47;;;4.36;67.88
37298;BME280;30517;51.932;4.278;2023-01-25T12:00:43;103329.91;;;4.36;68.06
37298;BME280;30517;51.932;4.278;2023-01-25T12:03:47;103315.25;;;4.38;68.17
37298;BME280;30517;51.932;4.278;2023-01-25T12:09:55;103259.13;;;4.18;67.98
37298;BME280;30517;51.932;4.278;2023-01-25T12:13:01;103287.41;;;4.39;67.83
37298;BME280;30517;51.932;4.278;2023-01-25T12:22:19;103261.44;;;4.42;68.12
37298;BME280;30517;51.932;4.278;2023-01-25T12:28:13;103252.00;;;4.44;68.12
37298;BME280;30517;51.932;4.278;2023-01-25T12:31:09;103248.50;;;4.43;67.73
37298;BME280;30517;51.932;4.278;2023-01-25T12:34:01;103233.81;;;4.46;67.54
37298;BME280;30517;51.932;4.278;2023-01-25T12:36:45;103238.28;;;4.48;68.06
37298;BME280;30517;51.932;4.278;2023-01-25T12:39:31;103236.13;;;4.41;67.98
37298;BME280;30517;51.932;4.278;2023-01-25T12:42:18;103229.00;;;4.38;68.37
37298;BME280;30517;51.932;4.278;2023-01-25T12:45:04;103233.34;;;4.38;68.34
37298;BME280;30517;51.932;4.278;2023-01-25T12:47:55;103228.91;;;4.37;68.13
37298;BME280;30517;51.932;4.278;2023-01-25T12:50:42;103203.75;;;4.24;68.18
37298;BME280;30517;51.932;4.278;2023-01-25T12:53:44;103210.72;;;4.38;68.40
37298;BME280;30517;51.932;4.278;2023-01-25T12:56:33;103200.44;;;4.41;68.48
37298;BME280;30517;51.932;4.278;2023-01-25T12:59:31;103070.44;;;3.65;68.11
37298;BME280;30517;51.932;4.278;2023-01-25T13:08:45;103189.09;;;4.41;68.58
37298;BME280;30517;51.932;4.278;2023-01-25T13:11:35;103166.72;;;4.31;68.21
37298;BME280;30517;51.932;4.278;2023-01-25T13:14:18;103180.44;;;4.42;68.42
37298;BME280;30517;51.932;4.278;2023-01-25T13:17:28;103173.13;;;4.36;68.21
37298;BME280;30517;51.932;4.278;2023-01-25T13:35:31;103146.75;;;4.47;67.75
37298;BME280;30517;51.932;4.278;2023-01-25T13:38:30;103136.13;;;4.43;68.28
37298;BME280;30517;51.932;4.278;2023-01-25T13:41:15;103143.78;;;4.40;68.53
37298;BME280;30517;51.932;4.278;2023-01-25T13:44:15;103145.41;;;4.38;68.72
37298;BME280;30517;51.932;4.278;2023-01-25T13:47:05;103137.00;;;4.44;68.46
37298;BME280;30517;51.932;4.278;2023-01-25T13:49:56;103129.06;;;4.42;68.57
37298;BME280;30517;51.932;4.278;2023-01-25T13:52:58;103127.47;;;4.44;68.59
37298;BME280;30517;51.932;4.278;2023-01-25T13:55:41;103126.84;;;4.49;68.35
37298;BME280;30517;51.932;4.278;2023-01-25T13:58:29;103090.97;;;4.31;68.19
37298;BME280;30517;51.932;4.278;2023-01-25T14:01:17;103099.63;;;4.30;68.23
37298;BME280;30517;51.932;4.278;2023-01-25T14:04:02;103116.28;;;4.47;68.06
37298;BME280;30517;51.932;4.278;2023-01-25T14:06:44;103078.63;;;4.14;68.18
37298;BME280;30517;51.932;4.278;2023-01-25T14:09:25;103124.06;;;4.46;68.53
37298;BME280;30517;51.932;4.278;2023-01-25T14:12:07;103122.41;;;4.48;68.54
37298;BME280;30517;51.932;4.278;2023-01-25T14:14:53;103109.59;;;4.37;68.39
37298;BME280;30517;51.932;4.278;2023-01-25T14:17:34;103118.25;;;4.36;68.19
37298;BME280;30517;51.932;4.278;2023-01-25T14:20:18;103112.84;;;4.48;67.99
37298;BME280;30517;51.932;4.278;2023-01-25T14:22:59;103098.00;;;4.47;67.45
37298;BME280;30517;51.932;4.278;2023-01-25T14:25:40;103019.97;;;4.09;67.30
37298;BME280;30517;51.932;4.278;2023-01-25T14:28:21;103110.50;;;4.53;67.00
37298;BME280;30517;51.932;4.278;2023-01-25T14:31:02;103106.56;;;4.44;67.25
37298;BME280;30517;51.932;4.278;2023-01-25T14:33:46;103075.28;;;4.31;67.49
37298;BME280;30517;51.932;4.278;2023-01-25T14:36:34;103070.94;;;4.32;67.29
37298;BME280;30517;51.932;4.278;2023-01-25T14:39:23;103095.38;;;4.47;67.73
37298;BME280;30517;51.932;4.278;2023-01-25T14:42:06;103033.94;;;4.09;67.56
37298;BME280;30517;51.932;4.278;2023-01-25T14:44:47;103095.91;;;4.41;67.94
37298;BME280;30517;51.932;4.278;2023-01-25T14:47:31;103102.16;;;4.43;67.97
37298;BME280;30517;51.932;4.278;2023-01-25T14:50:33;103090.16;;;4.32;68.06
37298;BME280;30517;51.932;4.278;2023-01-25T14:53:18;103064.81;;;4.31;68.05
37298;BME280;30517;51.932;4.278;2023-01-25T14:56:00;103061.03;;;4.26;67.94
37298;BME280;30517;51.932;4.278;2023-01-25T14:58:42;103071.06;;;4.33;68.17
37298;BME280;30517;51.932;4.278;2023-01-25T15:01:52;103086.91;;;4.36;68.36
37298;BME280;30517;51.932;4.278;2023-01-25T15:04:34;103089.53;;;4.36;68.22
37298;BME280;30517;51.932;4.278;2023-01-25T15:07:48;103080.78;;;4.36;68.18
37298;BME280;30517;51.932;4.278;2023-01-25T15:10:30;103056.63;;;4.25;68.46
37298;BME280;30517;51.932;4.278;2023-01-25T15:16:00;103063.31;;;4.35;68.04
37298;BME280;30517;51.932;4.278;2023-01-25T15:18:50;103064.22;;;4.35;68.76
37298;BME280;30517;51.932;4.278;2023-01-25T15:21:32;103052.13;;;4.22;68.53
37298;BME280;30517;51.932;4.278;2023-01-25T15:24:13;102976.28;;;3.91;68.60
37298;BME280;30517;51.932;4.278;2023-01-25T15:26:54;103048.53;;;4.35;68.48
37298;BME280;30517;51.932;4.278;2023-01-25T15:29:35;103051.16;;;4.35;68.48
37298;BME280;30517;51.932;4.278;2023-01-25T15:32:19;103054.47;;;4.33;68.77